Papatoetoe, New Zealand
Current Conditions -  °F | °C
As of 5:30 PM on Sunday 23 Nov 2014 (Local Time) from NZAA Reporting Station
Clear Clear  
Wind Chill: 64°   Ceiling: Unl
Heat Index: 64°   Visibility: 6mi
Dew Point: 55°   Wind: 13mph
Humidity: 73%   Direction: 210°SSW
Pressure: 30.09"   Gusts: NA
Location:  36.97°S, 174.85°E
Report Text: NZAA 230430Z AUTO 21011KT 9999 NCD 18/13 Q1019 NOSIG
Loading
Personal Weather Stations






























Interactive Weather Map New forecast layout! Learn more

10-Day Weather Forecast

Advertisements
Track Severe Weather on mobile